sensor_id;sensor_type;location;lat;lon;timestamp;P1;durP1;ratioP1;P2;durP2;ratioP2
19623;SDS011;9959;49.798;9.928;2023-06-01T00:02:02;8.85;;;3.75;;
19623;SDS011;9959;49.798;9.928;2023-06-01T00:04:29;9.57;;;3.50;;
19623;SDS011;9959;49.798;9.928;2023-06-01T00:06:55;6.97;;;3.63;;
19623;SDS011;9959;49.798;9.928;2023-06-01T00:09:23;8.60;;;3.90;;
19623;SDS011;9959;49.798;9.928;2023-06-01T00:11:49;7.63;;;3.33;;
19623;SDS011;9959;49.798;9.928;2023-06-01T00:14:16;7.60;;;3.67;;
19623;SDS011;9959;49.798;9.928;2023-06-01T00:16:43;6.13;;;3.90;;
19623;SDS011;9959;49.798;9.928;2023-06-01T00:19:11;10.77;;;4.10;;
19623;SDS011;9959;49.798;9.928;2023-06-01T00:21:39;6.85;;;3.35;;
19623;SDS011;9959;49.798;9.928;2023-06-01T00:24:07;5.72;;;3.60;;
19623;SDS011;9959;49.798;9.928;2023-06-01T00:26:34;7.65;;;3.60;;
19623;SDS011;9959;49.798;9.928;2023-06-01T00:29:01;13.90;;;3.97;;
19623;SDS011;9959;49.798;9.928;2023-06-01T00:31:28;5.43;;;3.30;;
19623;SDS011;9959;49.798;9.928;2023-06-01T00:33:55;11.98;;;3.83;;
19623;SDS011;9959;49.798;9.928;2023-06-01T00:36:22;8.52;;;4.00;;
19623;SDS011;9959;49.798;9.928;2023-06-01T00:38:49;10.50;;;3.90;;
19623;SDS011;9959;49.798;9.928;2023-06-01T00:41:16;9.93;;;3.55;;
19623;SDS011;9959;49.798;9.928;2023-06-01T00:43:43;6.40;;;3.30;;
19623;SDS011;9959;49.798;9.928;2023-06-01T00:46:10;9.32;;;4.25;;
19623;SDS011;9959;49.798;9.928;2023-06-01T00:48:38;6.43;;;3.92;;
19623;SDS011;9959;49.798;9.928;2023-06-01T00:51:05;6.05;;;3.58;;
19623;SDS011;9959;49.798;9.928;2023-06-01T00:53:32;9.88;;;3.92;;
19623;SDS011;9959;49.798;9.928;2023-06-01T00:55:59;7.00;;;3.47;;
19623;SDS011;9959;49.798;9.928;2023-06-01T00:58:26;7.10;;;3.60;;
19623;SDS011;9959;49.798;9.928;2023-06-01T01:00:53;10.98;;;4.28;;
19623;SDS011;9959;49.798;9.928;2023-06-01T01:03:20;7.35;;;3.70;;
19623;SDS011;9959;49.798;9.928;2023-06-01T01:05:48;8.20;;;3.70;;
19623;SDS011;9959;49.798;9.928;2023-06-01T01:13:48;8.65;;;3.42;;
19623;SDS011;9959;49.798;9.928;2023-06-01T01:16:29;15.27;;;4.38;;
19623;SDS011;9959;49.798;9.928;2023-06-01T01:21:39;9.70;;;4.00;;
19623;SDS011;9959;49.798;9.928;2023-06-01T01:27:27;12.35;;;3.95;;
19623;SDS011;9959;49.798;9.928;2023-06-01T01:30:03;8.90;;;3.85;;
19623;SDS011;9959;49.798;9.928;2023-06-01T01:32:34;12.18;;;4.05;;
19623;SDS011;9959;49.798;9.928;2023-06-01T01:35:02;7.53;;;3.35;;
19623;SDS011;9959;49.798;9.928;2023-06-01T01:37:32;7.05;;;3.70;;
19623;SDS011;9959;49.798;9.928;2023-06-01T01:39:59;8.55;;;4.28;;
19623;SDS011;9959;49.798;9.928;2023-06-01T01:42:27;7.68;;;3.90;;
19623;SDS011;9959;49.798;9.928;2023-06-01T01:44:54;8.77;;;3.95;;
19623;SDS011;9959;49.798;9.928;2023-06-01T01:49:56;8.35;;;3.85;;
19623;SDS011;9959;49.798;9.928;2023-06-01T01:52:27;12.32;;;4.38;;
19623;SDS011;9959;49.798;9.928;2023-06-01T01:55:02;10.63;;;4.30;;
19623;SDS011;9959;49.798;9.928;2023-06-01T01:57:29;12.65;;;4.32;;
19623;SDS011;9959;49.798;9.928;2023-06-01T01:59:57;11.18;;;4.03;;
19623;SDS011;9959;49.798;9.928;2023-06-01T02:02:24;8.18;;;4.05;;
19623;SDS011;9959;49.798;9.928;2023-06-01T02:04:51;7.63;;;4.13;;
19623;SDS011;9959;49.798;9.928;2023-06-01T02:07:18;6.93;;;4.05;;
19623;SDS011;9959;49.798;9.928;2023-06-01T02:09:45;9.30;;;3.95;;
19623;SDS011;9959;49.798;9.928;2023-06-01T02:12:12;10.82;;;4.60;;
19623;SDS011;9959;49.798;9.928;2023-06-01T02:14:39;9.70;;;3.97;;
19623;SDS011;9959;49.798;9.928;2023-06-01T02:17:06;11.93;;;4.32;;
19623;SDS011;9959;49.798;9.928;2023-06-01T02:19:34;10.40;;;4.05;;
19623;SDS011;9959;49.798;9.928;2023-06-01T02:22:00;9.35;;;4.00;;
19623;SDS011;9959;49.798;9.928;2023-06-01T02:24:28;11.70;;;4.20;;
19623;SDS011;9959;49.798;9.928;2023-06-01T02:26:55;9.20;;;3.80;;
19623;SDS011;9959;49.798;9.928;2023-06-01T02:29:22;7.90;;;3.78;;
19623;SDS011;9959;49.798;9.928;2023-06-01T02:31:52;15.15;;;4.65;;
19623;SDS011;9959;49.798;9.928;2023-06-01T02:34:19;9.23;;;4.15;;
19623;SDS011;9959;49.798;9.928;2023-06-01T02:36:46;5.75;;;3.38;;
19623;SDS011;9959;49.798;9.928;2023-06-01T02:39:16;8.65;;;4.10;;
19623;SDS011;9959;49.798;9.928;2023-06-01T02:41:43;8.60;;;4.20;;
19623;SDS011;9959;49.798;9.928;2023-06-01T02:44:10;8.48;;;3.88;;
19623;SDS011;9959;49.798;9.928;2023-06-01T02:46:37;11.13;;;4.68;;
19623;SDS011;9959;49.798;9.928;2023-06-01T02:49:04;9.52;;;4.10;;
19623;SDS011;9959;49.798;9.928;2023-06-01T02:51:31;11.43;;;4.25;;
19623;SDS011;9959;49.798;9.928;2023-06-01T02:53:59;9.63;;;4.03;;
19623;SDS011;9959;49.798;9.928;2023-06-01T02:56:26;11.65;;;4.50;;
19623;SDS011;9959;49.798;9.928;2023-06-01T02:58:53;6.88;;;3.70;;
19623;SDS011;9959;49.798;9.928;2023-06-01T03:01:20;13.55;;;3.92;;
19623;SDS011;9959;49.798;9.928;2023-06-01T03:03:47;6.80;;;4.22;;
19623;SDS011;9959;49.798;9.928;2023-06-01T03:06:15;10.00;;;4.38;;
19623;SDS011;9959;49.798;9.928;2023-06-01T03:08:44;8.30;;;4.10;;
19623;SDS011;9959;49.798;9.928;2023-06-01T03:11:11;12.38;;;4.15;;
19623;SDS011;9959;49.798;9.928;2023-06-01T03:13:38;9.20;;;4.10;;
19623;SDS011;9959;49.798;9.928;2023-06-01T03:16:05;9.13;;;3.97;;
19623;SDS011;9959;49.798;9.928;2023-06-01T03:18:32;11.48;;;4.75;;
19623;SDS011;9959;49.798;9.928;2023-06-01T03:21:02;8.70;;;4.53;;
19623;SDS011;9959;49.798;9.928;2023-06-01T03:23:29;8.40;;;4.63;;
19623;SDS011;9959;49.798;9.928;2023-06-01T03:25:57;9.75;;;4.65;;
19623;SDS011;9959;49.798;9.928;2023-06-01T03:28:24;11.07;;;4.50;;
19623;SDS011;9959;49.798;9.928;2023-06-01T03:30:50;13.85;;;5.07;;
19623;SDS011;9959;49.798;9.928;2023-06-01T03:33:17;13.10;;;3.90;;
19623;SDS011;9959;49.798;9.928;2023-06-01T03:35:44;11.07;;;4.32;;
19623;SDS011;9959;49.798;9.928;2023-06-01T03:38:11;9.18;;;5.15;;
19623;SDS011;9959;49.798;9.928;2023-06-01T03:40:38;9.95;;;4.82;;
19623;SDS011;9959;49.798;9.928;2023-06-01T03:43:05;10.48;;;4.82;;
19623;SDS011;9959;49.798;9.928;2023-06-01T03:45:32;11.30;;;4.90;;
19623;SDS011;9959;49.798;9.928;2023-06-01T03:47:59;9.25;;;4.38;;
19623;SDS011;9959;49.798;9.928;2023-06-01T03:50:26;9.57;;;4.35;;
19623;SDS011;9959;49.798;9.928;2023-06-01T03:52:53;8.63;;;4.38;;
19623;SDS011;9959;49.798;9.928;2023-06-01T03:55:20;9.60;;;4.45;;
19623;SDS011;9959;49.798;9.928;2023-06-01T03:57:49;10.23;;;4.43;;
19623;SDS011;9959;49.798;9.928;2023-06-01T04:00:15;9.60;;;4.47;;
19623;SDS011;9959;49.798;9.928;2023-06-01T04:02:54;13.43;;;4.70;;
19623;SDS011;9959;49.798;9.928;2023-06-01T04:05:24;6.60;;;4.40;;
19623;SDS011;9959;49.798;9.928;2023-06-01T04:07:53;11.18;;;4.18;;
19623;SDS011;9959;49.798;9.928;2023-06-01T04:10:21;11.50;;;4.75;;
19623;SDS011;9959;49.798;9.928;2023-06-01T04:12:48;10.73;;;4.88;;
19623;SDS011;9959;49.798;9.928;2023-06-01T04:15:16;9.15;;;4.50;;
19623;SDS011;9959;49.798;9.928;2023-06-01T04:17:44;11.93;;;4.03;;
19623;SDS011;9959;49.798;9.928;2023-06-01T04:20:13;12.70;;;4.05;;
19623;SDS011;9959;49.798;9.928;2023-06-01T04:22:42;10.10;;;4.70;;
19623;SDS011;9959;49.798;9.928;2023-06-01T04:25:11;11.65;;;4.80;;
19623;SDS011;9959;49.798;9.928;2023-06-01T04:27:57;11.57;;;5.38;;
19623;SDS011;9959;49.798;9.928;2023-06-01T04:30:24;11.35;;;5.10;;
19623;SDS011;9959;49.798;9.928;2023-06-01T04:32:51;11.07;;;4.90;;
19623;SDS011;9959;49.798;9.928;2023-06-01T04:35:18;13.20;;;5.38;;
19623;SDS011;9959;49.798;9.928;2023-06-01T04:37:45;13.65;;;5.07;;
19623;SDS011;9959;49.798;9.928;2023-06-01T04:40:12;11.82;;;5.07;;
19623;SDS011;9959;49.798;9.928;2023-06-01T04:42:42;13.98;;;5.18;;
19623;SDS011;9959;49.798;9.928;2023-06-01T04:45:16;13.30;;;5.32;;
19623;SDS011;9959;49.798;9.928;2023-06-01T04:47:43;12.80;;;5.00;;
19623;SDS011;9959;49.798;9.928;2023-06-01T04:50:12;16.13;;;5.28;;
19623;SDS011;9959;49.798;9.928;2023-06-01T04:52:42;8.57;;;4.70;;
19623;SDS011;9959;49.798;9.928;2023-06-01T04:55:10;13.55;;;4.93;;
19623;SDS011;9959;49.798;9.928;2023-06-01T04:57:41;13.02;;;5.00;;
19623;SDS011;9959;49.798;9.928;2023-06-01T05:00:11;11.65;;;5.05;;
19623;SDS011;9959;49.798;9.928;2023-06-01T05:02:40;11.98;;;4.80;;
19623;SDS011;9959;49.798;9.928;2023-06-01T05:05:09;15.20;;;5.10;;
19623;SDS011;9959;49.798;9.928;2023-06-01T05:07:36;9.52;;;4.75;;
19623;SDS011;9959;49.798;9.928;2023-06-01T05:10:05;6.55;;;4.10;;
19623;SDS011;9959;49.798;9.928;2023-06-01T05:12:33;13.85;;;4.70;;
19623;SDS011;9959;49.798;9.928;2023-06-01T05:15:05;7.43;;;4.00;;
19623;SDS011;9959;49.798;9.928;2023-06-01T05:17:33;12.70;;;4.40;;
19623;SDS011;9959;49.798;9.928;2023-06-01T05:20:01;14.10;;;4.60;;
19623;SDS011;9959;49.798;9.928;2023-06-01T05:22:28;9.65;;;4.75;;
19623;SDS011;9959;49.798;9.928;2023-06-01T05:24:54;12.60;;;4.40;;
19623;SDS011;9959;49.798;9.928;2023-06-01T05:27:21;10.45;;;4.20;;
19623;SDS011;9959;49.798;9.928;2023-06-01T05:29:48;12.70;;;4.38;;
19623;SDS011;9959;49.798;9.928;2023-06-01T05:32:15;10.05;;;4.70;;
19623;SDS011;9959;49.798;9.928;2023-06-01T05:34:42;6.78;;;3.38;;
19623;SDS011;9959;49.798;9.928;2023-06-01T05:37:09;7.45;;;3.78;;
19623;SDS011;9959;49.798;9.928;2023-06-01T05:39:36;11.40;;;3.80;;
19623;SDS011;9959;49.798;9.928;2023-06-01T05:42:03;11.57;;;4.05;;
19623;SDS011;9959;49.798;9.928;2023-06-01T05:44:32;12.63;;;4.10;;
19623;SDS011;9959;49.798;9.928;2023-06-01T05:46:58;9.10;;;3.60;;
19623;SDS011;9959;49.798;9.928;2023-06-01T05:49:25;8.70;;;3.78;;
19623;SDS011;9959;49.798;9.928;2023-06-01T05:51:57;7.28;;;4.13;;
19623;SDS011;9959;49.798;9.928;2023-06-01T05:54:24;12.68;;;4.10;;
19623;SDS011;9959;49.798;9.928;2023-06-01T05:56:51;11.85;;;3.95;;
19623;SDS011;9959;49.798;9.928;2023-06-01T05:59:18;15.73;;;4.43;;
19623;SDS011;9959;49.798;9.928;2023-06-01T06:01:45;8.65;;;5.10;;
19623;SDS011;9959;49.798;9.928;2023-06-01T06:04:12;17.85;;;4.65;;
19623;SDS011;9959;49.798;9.928;2023-06-01T06:06:40;14.93;;;5.20;;
19623;SDS011;9959;49.798;9.928;2023-06-01T06:09:07;17.65;;;4.90;;
19623;SDS011;9959;49.798;9.928;2023-06-01T06:11:34;10.75;;;4.00;;
19623;SDS011;9959;49.798;9.928;2023-06-01T06:14:01;12.90;;;4.72;;
19623;SDS011;9959;49.798;9.928;2023-06-01T06:16:28;15.60;;;4.90;;
19623;SDS011;9959;49.798;9.928;2023-06-01T06:18:55;9.55;;;3.90;;
19623;SDS011;9959;49.798;9.928;2023-06-01T06:21:21;6.40;;;3.83;;
19623;SDS011;9959;49.798;9.928;2023-06-01T06:23:48;8.93;;;3.88;;
19623;SDS011;9959;49.798;9.928;2023-06-01T06:26:16;10.38;;;4.07;;
19623;SDS011;9959;49.798;9.928;2023-06-01T06:28:42;8.93;;;4.07;;
19623;SDS011;9959;49.798;9.928;2023-06-01T06:31:09;18.45;;;4.47;;
19623;SDS011;9959;49.798;9.928;2023-06-01T06:33:36;7.47;;;3.47;;
19623;SDS011;9959;49.798;9.928;2023-06-01T06:36:03;11.75;;;3.28;;
19623;SDS011;9959;49.798;9.928;2023-06-01T06:38:30;6.93;;;3.50;;
19623;SDS011;9959;49.798;9.928;2023-06-01T06:40:57;5.00;;;3.33;;
19623;SDS011;9959;49.798;9.928;2023-06-01T06:43:24;14.38;;;4.13;;
19623;SDS011;9959;49.798;9.928;2023-06-01T06:45:51;6.53;;;3.47;;
19623;SDS011;9959;49.798;9.928;2023-06-01T06:48:18;13.88;;;4.10;;
19623;SDS011;9959;49.798;9.928;2023-06-01T06:50:45;8.13;;;3.78;;
19623;SDS011;9959;49.798;9.928;2023-06-01T06:53:12;9.13;;;3.78;;
19623;SDS011;9959;49.798;9.928;2023-06-01T06:55:39;11.07;;;3.70;;
19623;SDS011;9959;49.798;9.928;2023-06-01T06:58:06;11.95;;;3.20;;
19623;SDS011;9959;49.798;9.928;2023-06-01T07:00:33;7.20;;;3.38;;
19623;SDS011;9959;49.798;9.928;2023-06-01T07:02:59;10.60;;;3.30;;
19623;SDS011;9959;49.798;9.928;2023-06-01T07:05:27;7.80;;;3.30;;
19623;SDS011;9959;49.798;9.928;2023-06-01T07:07:53;4.13;;;2.63;;
19623;SDS011;9959;49.798;9.928;2023-06-01T07:10:23;7.28;;;3.22;;
19623;SDS011;9959;49.798;9.928;2023-06-01T07:12:51;8.15;;;3.65;;
19623;SDS011;9959;49.798;9.928;2023-06-01T07:15:18;7.10;;;3.00;;
19623;SDS011;9959;49.798;9.928;2023-06-01T07:17:45;9.27;;;2.55;;
19623;SDS011;9959;49.798;9.928;2023-06-01T07:20:12;8.75;;;3.63;;
19623;SDS011;9959;49.798;9.928;2023-06-01T07:22:39;10.27;;;3.03;;
19623;SDS011;9959;49.798;9.928;2023-06-01T07:25:06;10.98;;;2.83;;
19623;SDS011;9959;49.798;9.928;2023-06-01T07:27:35;7.05;;;2.80;;
19623;SDS011;9959;49.798;9.928;2023-06-01T07:30:03;7.82;;;3.03;;
19623;SDS011;9959;49.798;9.928;2023-06-01T07:32:31;4.13;;;2.67;;
19623;SDS011;9959;49.798;9.928;2023-06-01T07:34:58;6.70;;;3.10;;
19623;SDS011;9959;49.798;9.928;2023-06-01T07:37:26;9.50;;;3.25;;
19623;SDS011;9959;49.798;9.928;2023-06-01T07:39:54;7.65;;;2.85;;
19623;SDS011;9959;49.798;9.928;2023-06-01T07:42:21;4.55;;;2.85;;
19623;SDS011;9959;49.798;9.928;2023-06-01T07:44:48;4.75;;;2.60;;
19623;SDS011;9959;49.798;9.928;2023-06-01T07:47:15;4.30;;;2.33;;
19623;SDS011;9959;49.798;9.928;2023-06-01T07:49:42;5.88;;;2.58;;
19623;SDS011;9959;49.798;9.928;2023-06-01T07:52:09;6.55;;;2.90;;
19623;SDS011;9959;49.798;9.928;2023-06-01T07:54:36;6.20;;;3.05;;
19623;SDS011;9959;49.798;9.928;2023-06-01T07:57:04;7.93;;;3.40;;
19623;SDS011;9959;49.798;9.928;2023-06-01T07:59:31;8.57;;;2.95;;
19623;SDS011;9959;49.798;9.928;2023-06-01T08:01:58;5.63;;;2.72;;
19623;SDS011;9959;49.798;9.928;2023-06-01T08:04:31;8.25;;;2.75;;
19623;SDS011;9959;49.798;9.928;2023-06-01T08:07:00;4.18;;;2.63;;
19623;SDS011;9959;49.798;9.928;2023-06-01T08:09:30;7.20;;;3.05;;
19623;SDS011;9959;49.798;9.928;2023-06-01T08:11:57;10.30;;;2.70;;
19623;SDS011;9959;49.798;9.928;2023-06-01T08:14:24;6.60;;;2.88;;
19623;SDS011;9959;49.798;9.928;2023-06-01T08:16:51;5.55;;;2.92;;
19623;SDS011;9959;49.798;9.928;2023-06-01T08:19:18;6.65;;;2.90;;
19623;SDS011;9959;49.798;9.928;2023-06-01T08:21:45;9.93;;;2.83;;
19623;SDS011;9959;49.798;9.928;2023-06-01T08:24:12;7.53;;;2.72;;
19623;SDS011;9959;49.798;9.928;2023-06-01T08:26:39;5.93;;;3.15;;
19623;SDS011;9959;49.798;9.928;2023-06-01T08:29:07;8.38;;;3.00;;
19623;SDS011;9959;49.798;9.928;2023-06-01T08:31:34;8.68;;;2.90;;
19623;SDS011;9959;49.798;9.928;2023-06-01T08:34:03;8.93;;;2.60;;
19623;SDS011;9959;49.798;9.928;2023-06-01T08:36:30;4.28;;;2.67;;
19623;SDS011;9959;49.798;9.928;2023-06-01T08:38:57;5.97;;;2.47;;
19623;SDS011;9959;49.798;9.928;2023-06-01T08:41:26;5.72;;;2.55;;
19623;SDS011;9959;49.798;9.928;2023-06-01T08:44:07;7.88;;;2.40;;
19623;SDS011;9959;49.798;9.928;2023-06-01T08:46:36;4.32;;;2.38;;
19623;SDS011;9959;49.798;9.928;2023-06-01T08:49:08;6.32;;;2.53;;
19623;SDS011;9959;49.798;9.928;2023-06-01T08:51:38;6.05;;;2.15;;
19623;SDS011;9959;49.798;9.928;2023-06-01T08:54:05;6.20;;;2.30;;
19623;SDS011;9959;49.798;9.928;2023-06-01T08:56:37;4.03;;;2.40;;
19623;SDS011;9959;49.798;9.928;2023-06-01T08:59:11;5.97;;;2.50;;
19623;SDS011;9959;49.798;9.928;2023-06-01T09:01:40;7.35;;;3.53;;
19623;SDS011;9959;49.798;9.928;2023-06-01T09:04:07;5.43;;;2.58;;
19623;SDS011;9959;49.798;9.928;2023-06-01T09:06:36;8.23;;;2.50;;
19623;SDS011;9959;49.798;9.928;2023-06-01T09:09:05;7.03;;;2.28;;
19623;SDS011;9959;49.798;9.928;2023-06-01T09:11:37;3.40;;;2.80;;
19623;SDS011;9959;49.798;9.928;2023-06-01T09:14:20;3.28;;;2.22;;
19623;SDS011;9959;49.798;9.928;2023-06-01T09:16:48;7.57;;;2.42;;
19623;SDS011;9959;49.798;9.928;2023-06-01T09:19:16;4.65;;;2.50;;
19623;SDS011;9959;49.798;9.928;2023-06-01T09:21:56;5.22;;;2.67;;
19623;SDS011;9959;49.798;9.928;2023-06-01T09:24:24;4.18;;;2.33;;
19623;SDS011;9959;49.798;9.928;2023-06-01T09:26:57;5.22;;;2.75;;
19623;SDS011;9959;49.798;9.928;2023-06-01T09:29:29;5.50;;;2.92;;
19623;SDS011;9959;49.798;9.928;2023-06-01T09:31:56;6.60;;;2.60;;
19623;SDS011;9959;49.798;9.928;2023-06-01T09:34:24;5.88;;;2.70;;
19623;SDS011;9959;49.798;9.928;2023-06-01T09:36:51;4.50;;;2.65;;
19623;SDS011;9959;49.798;9.928;2023-06-01T09:39:21;3.95;;;2.40;;
19623;SDS011;9959;49.798;9.928;2023-06-01T09:46:50;4.57;;;2.13;;
19623;SDS011;9959;49.798;9.928;2023-06-01T09:49:19;4.75;;;2.55;;
19623;SDS011;9959;49.798;9.928;2023-06-01T09:51:52;6.15;;;2.55;;
19623;SDS011;9959;49.798;9.928;2023-06-01T09:54:45;8.35;;;2.70;;
19623;SDS011;9959;49.798;9.928;2023-06-01T09:57:21;5.35;;;2.53;;
19623;SDS011;9959;49.798;9.928;2023-06-01T09:59:49;3.03;;;2.20;;
19623;SDS011;9959;49.798;9.928;2023-06-01T10:02:18;6.32;;;2.50;;
19623;SDS011;9959;49.798;9.928;2023-06-01T10:07:22;4.60;;;2.60;;
19623;SDS011;9959;49.798;9.928;2023-06-01T10:09:50;3.17;;;2.50;;
19623;SDS011;9959;49.798;9.928;2023-06-01T10:12:18;4.30;;;2.40;;
19623;SDS011;9959;49.798;9.928;2023-06-01T10:14:45;5.35;;;2.67;;
19623;SDS011;9959;49.798;9.928;2023-06-01T10:17:13;5.72;;;2.50;;
19623;SDS011;9959;49.798;9.928;2023-06-01T10:19:42;9.25;;;2.40;;
19623;SDS011;9959;49.798;9.928;2023-06-01T10:22:12;3.47;;;2.40;;
19623;SDS011;9959;49.798;9.928;2023-06-01T10:24:40;5.55;;;2.60;;
19623;SDS011;9959;49.798;9.928;2023-06-01T10:29:38;4.65;;;2.85;;
19623;SDS011;9959;49.798;9.928;2023-06-01T10:32:09;4.75;;;2.40;;
19623;SDS011;9959;49.798;9.928;2023-06-01T10:35:05;6.20;;;2.60;;
19623;SDS011;9959;49.798;9.928;2023-06-01T10:37:33;5.72;;;2.75;;
19623;SDS011;9959;49.798;9.928;2023-06-01T10:42:42;3.63;;;2.28;;
19623;SDS011;9959;49.798;9.928;2023-06-01T10:48:11;8.05;;;2.65;;
19623;SDS011;9959;49.798;9.928;2023-06-01T10:50:39;8.70;;;2.85;;
19623;SDS011;9959;49.798;9.928;2023-06-01T10:58:47;7.68;;;2.35;;
19623;SDS011;9959;49.798;9.928;2023-06-01T11:01:44;7.68;;;2.97;;
19623;SDS011;9959;49.798;9.928;2023-06-01T11:04:12;7.05;;;2.70;;
19623;SDS011;9959;49.798;9.928;2023-06-01T11:06:40;3.10;;;2.20;;
19623;SDS011;9959;49.798;9.928;2023-06-01T11:09:10;4.82;;;2.65;;
19623;SDS011;9959;49.798;9.928;2023-06-01T11:14:18;10.13;;;3.10;;
19623;SDS011;9959;49.798;9.928;2023-06-01T11:16:46;11.55;;;2.92;;
19623;SDS011;9959;49.798;9.928;2023-06-01T11:19:17;9.15;;;2.75;;
19623;SDS011;9959;49.798;9.928;2023-06-01T11:21:47;8.02;;;3.15;;
19623;SDS011;9959;49.798;9.928;2023-06-01T11:24:17;4.97;;;2.53;;
19623;SDS011;9959;49.798;9.928;2023-06-01T11:26:45;5.13;;;2.55;;
19623;SDS011;9959;49.798;9.928;2023-06-01T11:29:15;10.07;;;3.08;;
19623;SDS011;9959;49.798;9.928;2023-06-01T11:31:43;4.15;;;2.60;;
19623;SDS011;9959;49.798;9.928;2023-06-01T11:34:13;7.38;;;2.72;;
19623;SDS011;9959;49.798;9.928;2023-06-01T11:36:42;6.53;;;2.65;;
19623;SDS011;9959;49.798;9.928;2023-06-01T11:39:17;6.90;;;2.63;;
19623;SDS011;9959;49.798;9.928;2023-06-01T11:41:52;4.88;;;2.38;;
19623;SDS011;9959;49.798;9.928;2023-06-01T11:44:32;4.22;;;2.72;;
19623;SDS011;9959;49.798;9.928;2023-06-01T11:47:00;6.22;;;3.10;;
19623;SDS011;9959;49.798;9.928;2023-06-01T11:49:27;7.60;;;2.50;;
19623;SDS011;9959;49.798;9.928;2023-06-01T11:51:54;9.82;;;2.83;;
19623;SDS011;9959;49.798;9.928;2023-06-01T11:54:26;8.65;;;2.58;;
19623;SDS011;9959;49.798;9.928;2023-06-01T11:56:54;4.57;;;2.47;;
19623;SDS011;9959;49.798;9.928;2023-06-01T11:59:24;5.32;;;2.35;;
19623;SDS011;9959;49.798;9.928;2023-06-01T12:01:51;3.03;;;2.40;;
19623;SDS011;9959;49.798;9.928;2023-06-01T12:04:21;3.05;;;2.30;;
19623;SDS011;9959;49.798;9.928;2023-06-01T12:06:50;3.53;;;2.40;;
19623;SDS011;9959;49.798;9.928;2023-06-01T12:09:17;4.55;;;2.70;;
19623;SDS011;9959;49.798;9.928;2023-06-01T12:11:46;5.00;;;2.92;;
19623;SDS011;9959;49.798;9.928;2023-06-01T12:14:14;3.28;;;2.95;;
19623;SDS011;9959;49.798;9.928;2023-06-01T12:16:54;4.63;;;3.00;;
19623;SDS011;9959;49.798;9.928;2023-06-01T12:19:24;4.90;;;3.25;;
19623;SDS011;9959;49.798;9.928;2023-06-01T12:21:55;6.50;;;2.65;;
19623;SDS011;9959;49.798;9.928;2023-06-01T12:24:32;4.53;;;2.80;;
19623;SDS011;9959;49.798;9.928;2023-06-01T12:27:00;4.68;;;2.70;;
19623;SDS011;9959;49.798;9.928;2023-06-01T12:32:02;6.03;;;2.65;;
19623;SDS011;9959;49.798;9.928;2023-06-01T12:34:29;3.00;;;2.70;;
19623;SDS011;9959;49.798;9.928;2023-06-01T12:36:56;7.00;;;2.58;;
19623;SDS011;9959;49.798;9.928;2023-06-01T12:39:33;5.85;;;2.95;;
19623;SDS011;9959;49.798;9.928;2023-06-01T12:42:03;6.35;;;2.45;;
19623;SDS011;9959;49.798;9.928;2023-06-01T12:44:33;2.70;;;2.22;;
19623;SDS011;9959;49.798;9.928;2023-06-01T12:47:01;6.50;;;2.75;;
19623;SDS011;9959;49.798;9.928;2023-06-01T12:49:30;3.30;;;2.67;;
19623;SDS011;9959;49.798;9.928;2023-06-01T12:51:57;4.00;;;2.60;;
19623;SDS011;9959;49.798;9.928;2023-06-01T12:54:25;4.22;;;2.90;;
19623;SDS011;9959;49.798;9.928;2023-06-01T12:56:51;3.92;;;2.53;;
19623;SDS011;9959;49.798;9.928;2023-06-01T12:59:18;8.68;;;3.05;;
19623;SDS011;9959;49.798;9.928;2023-06-01T13:01:45;6.60;;;2.80;;
19623;SDS011;9959;49.798;9.928;2023-06-01T13:04:12;4.40;;;2.83;;
19623;SDS011;9959;49.798;9.928;2023-06-01T13:06:40;5.63;;;2.60;;
19623;SDS011;9959;49.798;9.928;2023-06-01T13:09:07;8.00;;;2.95;;
19623;SDS011;9959;49.798;9.928;2023-06-01T13:11:34;4.60;;;2.60;;
19623;SDS011;9959;49.798;9.928;2023-06-01T13:14:01;4.50;;;2.90;;
19623;SDS011;9959;49.798;9.928;2023-06-01T13:16:28;5.38;;;2.95;;
19623;SDS011;9959;49.798;9.928;2023-06-01T13:18:55;8.05;;;2.92;;
19623;SDS011;9959;49.798;9.928;2023-06-01T13:21:22;3.80;;;2.58;;
19623;SDS011;9959;49.798;9.928;2023-06-01T13:23:49;2.95;;;2.50;;
19623;SDS011;9959;49.798;9.928;2023-06-01T13:26:16;5.28;;;2.78;;
19623;SDS011;9959;49.798;9.928;2023-06-01T13:28:43;7.78;;;3.22;;
19623;SDS011;9959;49.798;9.928;2023-06-01T13:31:10;7.18;;;2.80;;
19623;SDS011;9959;49.798;9.928;2023-06-01T13:33:37;2.85;;;2.35;;
19623;SDS011;9959;49.798;9.928;2023-06-01T13:36:04;7.28;;;3.10;;
19623;SDS011;9959;49.798;9.928;2023-06-01T13:38:32;6.70;;;2.80;;
19623;SDS011;9959;49.798;9.928;2023-06-01T13:40:59;3.92;;;2.78;;
19623;SDS011;9959;49.798;9.928;2023-06-01T13:43:26;4.82;;;2.63;;
19623;SDS011;9959;49.798;9.928;2023-06-01T13:45:53;3.75;;;2.45;;
19623;SDS011;9959;49.798;9.928;2023-06-01T13:48:20;5.13;;;2.80;;
19623;SDS011;9959;49.798;9.928;2023-06-01T13:50:47;7.22;;;3.20;;
19623;SDS011;9959;49.798;9.928;2023-06-01T13:53:14;4.22;;;2.58;;
19623;SDS011;9959;49.798;9.928;2023-06-01T13:55:41;4.63;;;2.60;;
19623;SDS011;9959;49.798;9.928;2023-06-01T13:58:08;4.53;;;2.80;;
19623;SDS011;9959;49.798;9.928;2023-06-01T14:00:35;3.10;;;2.80;;
19623;SDS011;9959;49.798;9.928;2023-06-01T14:03:02;7.93;;;2.90;;
19623;SDS011;9959;49.798;9.928;2023-06-01T14:05:30;3.45;;;2.47;;
19623;SDS011;9959;49.798;9.928;2023-06-01T14:08:15;4.20;;;2.70;;
19623;SDS011;9959;49.798;9.928;2023-06-01T14:10:42;6.50;;;3.00;;
19623;SDS011;9959;49.798;9.928;2023-06-01T14:13:10;6.53;;;3.00;;
19623;SDS011;9959;49.798;9.928;2023-06-01T14:15:37;5.90;;;2.88;;
19623;SDS011;9959;49.798;9.928;2023-06-01T14:18:04;4.32;;;2.45;;
19623;SDS011;9959;49.798;9.928;2023-06-01T14:20:32;7.90;;;2.90;;
19623;SDS011;9959;49.798;9.928;2023-06-01T14:23:01;3.47;;;2.95;;
19623;SDS011;9959;49.798;9.928;2023-06-01T14:25:29;4.97;;;2.80;;
19623;SDS011;9959;49.798;9.928;2023-06-01T14:27:57;9.32;;;3.00;;
19623;SDS011;9959;49.798;9.928;2023-06-01T14:30:23;5.50;;;2.85;;
19623;SDS011;9959;49.798;9.928;2023-06-01T14:32:53;4.15;;;2.90;;
19623;SDS011;9959;49.798;9.928;2023-06-01T14:35:20;6.05;;;3.03;;
19623;SDS011;9959;49.798;9.928;2023-06-01T14:37:47;5.60;;;2.60;;
19623;SDS011;9959;49.798;9.928;2023-06-01T14:40:16;4.57;;;2.83;;
19623;SDS011;9959;49.798;9.928;2023-06-01T14:42:43;4.43;;;2.85;;
19623;SDS011;9959;49.798;9.928;2023-06-01T14:45:10;3.90;;;2.58;;
19623;SDS011;9959;49.798;9.928;2023-06-01T14:47:40;3.33;;;2.80;;
19623;SDS011;9959;49.798;9.928;2023-06-01T14:50:08;4.40;;;3.40;;
19623;SDS011;9959;49.798;9.928;2023-06-01T14:52:35;4.78;;;2.90;;
19623;SDS011;9959;49.798;9.928;2023-06-01T14:55:02;9.02;;;2.95;;
19623;SDS011;9959;49.798;9.928;2023-06-01T14:57:29;3.35;;;3.03;;
19623;SDS011;9959;49.798;9.928;2023-06-01T14:59:56;4.65;;;3.10;;
19623;SDS011;9959;49.798;9.928;2023-06-01T15:02:29;3.28;;;2.85;;
19623;SDS011;9959;49.798;9.928;2023-06-01T15:04:56;4.90;;;2.78;;
19623;SDS011;9959;49.798;9.928;2023-06-01T15:07:23;5.53;;;3.03;;
19623;SDS011;9959;49.798;9.928;2023-06-01T15:09:50;3.17;;;2.88;;
19623;SDS011;9959;49.798;9.928;2023-06-01T15:12:18;3.88;;;2.60;;
19623;SDS011;9959;49.798;9.928;2023-06-01T15:14:45;8.35;;;2.83;;
19623;SDS011;9959;49.798;9.928;2023-06-01T15:17:14;4.97;;;2.78;;
19623;SDS011;9959;49.798;9.928;2023-06-01T15:19:42;6.82;;;2.78;;
19623;SDS011;9959;49.798;9.928;2023-06-01T15:22:09;3.78;;;2.92;;
19623;SDS011;9959;49.798;9.928;2023-06-01T15:24:36;5.18;;;2.97;;
19623;SDS011;9959;49.798;9.928;2023-06-01T15:27:04;5.85;;;2.97;;
19623;SDS011;9959;49.798;9.928;2023-06-01T15:29:32;4.30;;;2.78;;
19623;SDS011;9959;49.798;9.928;2023-06-01T15:31:59;2.88;;;2.47;;
19623;SDS011;9959;49.798;9.928;2023-06-01T15:34:26;4.97;;;2.50;;
19623;SDS011;9959;49.798;9.928;2023-06-01T15:36:53;3.70;;;2.70;;
19623;SDS011;9959;49.798;9.928;2023-06-01T15:39:21;7.18;;;2.60;;
19623;SDS011;9959;49.798;9.928;2023-06-01T15:41:48;5.78;;;2.65;;
19623;SDS011;9959;49.798;9.928;2023-06-01T15:44:22;8.07;;;3.08;;
19623;SDS011;9959;49.798;9.928;2023-06-01T15:46:49;4.30;;;3.00;;